INDIA METEOROLOGICAL DEPARTMENT, R.M.C. NEW DELHI
Dated:25-06-2021
METARS


Agartala   
VEAT 250600Z 18004KT 5000 HZ FEW018 SCT025 FEW030CB 33/27 Q1003 TEMPO 3000 -RA=
Ahmedabad  
COR VAAH 250600Z 27007KT 5000 HZ FEW020 SCT025 32/25 Q1003 NOSIG=
Allahabad  
VEAB 250600Z 05006KT 6000 SCT016 SCT020 BKN080 30/28 Q1002 NOSIG=
Aurangabad 
VAAU 250600Z 23003KT 4000 HZ BKN020 BKN100 29/22 Q1009 NOSIG=
Bangalore  
VOBL 250600Z 28016KT 8000 FEW012 SCT080 27/16 Q1014 NOSIG=
Baroda     
VABO 250600Z 23008KT 6000 SCT020 SCT025 31/25 Q1004 NOSIG=
Bhaunagar  
VABV 250600Z 27006KT 6000 FEW020 SCT025 33/24 Q1005=
Bhopal     
VABP 250600Z 25011KT 6000 SCT025 SCT030 30/25 Q1006 NOSIG=
Bhubaneswar
VEBS 250600Z 24010KT 6000 SCT018 33/25 Q1001 NOSIG=
Bhuntar    
VIBR 250600Z 00000KT 6000 FEW030 29/14 Q1007=
Chennai    
VOMM 250600Z 30013KT 6000 FEW020 SCT100 34/21 Q1006 NOSIG=
Coimbatore 
VOCB 250600Z 20008KT 6000 FEW012 SCT080 31/20 Q1011 NOSIG=
Colombo    
VCBI 250610Z 24009KT 210V280 9999 SCT018 30/24 Q1010 NOSIG=
Delhi      
VIDP 250600Z 29005KT 4500 HZ NSC 37/18 Q1002 NOSIG=
Dehradun   
VIDN 250600Z 00000KT 3000 HZ SCT030 32/23 Q1003 =
Gauhati    
VEGT 250600Z 31004KT 5000 HZ SCT018 FEW025CB BKN100 30/22 Q1001 NOSIG=
Gaya       
VEGY 250600Z 00000KT 3000 HZ SCT018 FEW030CB BKN100 31/26 Q1000 =
Gaggal     
VIGG 250600Z 13003KT 6000 FEW040 32/18 Q1009=
Goa        
VOGO 250600Z 28008KT 6000 FEW012 SCT016 FEW022TCU BKN090 29/28 Q1008 TEMPO 5000 -RA=
Fursatganj 
VERB 250600Z 05003KT 2000 BR FEW015 SCT020 OVC080 27/26 Q1001 =
Hyderabad  
VOHS 250600Z 28010G20KT 6000 SCT015 BKN080 30/24 Q1009 NOSIG=
Imphal     
VEIM 250600Z 16004KT 7000 NSW SCT018 28/21 Q1007 NOSIG=
Indore     
VAID 250600Z 27010KT 5000 HZ FEW015 SCT025 BKN100 27/20 Q1007 NOSIG=
Jabalpur   
VAJB 250600Z 26010KT 5000 HZ FEW015 SCT025 BKN090 27/23 Q1005=
Jaipur     
VIJP 250600Z 29010KT 5000 HZ FEW030 SCT100 34/21 Q1003 NOSIG=
Khajuraho  
VEKO 250600Z 25002KT 6000 SCT100 33/25 Q1001=
Kochi      
VOCI 250600Z 29005KT 5000 HZ FEW015 SCT020 31/23 Q1010 NOSIG=
Kolkata    
VECC 250600Z 15007KT 4000 HZ SCT018 SCT025 35/31 Q1000 NOSIG=
Kozhikode  
VOCL 250600Z 32005KT 6000 FEW015 SCT018 31/23 Q1009 NOSIG=
Lucknow    
VILK 250600Z 09005KT 2500 BR SCT020 FEW030CB BKN100 31/28 Q1001 TEMPO VIS 1500 RA=
Madurai    
VOMD 250600Z VRB03KT 6000 FEW020 35/18 Q1009 NOSIG=
Mohanbari  
VEMN 250600Z 09006KT 3000 -RA SCT008 SCT018 FEW025CB OVC090 29/27 Q1003 NOSIG=
Mumbai     
VABB 250600Z 28014KT 2100 -RA SCT012 SCT015 FEW030CB OVC090 27/25 Q1007 TEMPO 1500 RA=
Nagpur     
VANP 250600Z 29008KT 5000 HZ SCT018 BKN090 29/22 Q1005 NOSIG=
Patna      
VEPT 250600Z 12008KT 2000 HZ FEW010 SCT018 FEW030CB OVC080 29/24 Q0999 TEMPO 0800 TSRA=
Raipur     
VERP 250600Z 26008KT 5000 HZ SCT020 OVC080 27/24 Q1004 NOSIG=
Safdarjung 
VIDD 250600Z 32003KT 4500 HZ NSC 37/19 Q1001 BECMG 5000 HZ=
Shimla     
VISM 250600Z 32003KT 5000 FEW030 26/12 Q1012=
Surat     
VASU 250600Z 27003KT 6000 SCT018 SCT025 BKN070 31/25 Q1005 NOSIG=
Ranchi     
VERC 250600Z 22006KT 4000 HZ SCT018 BKN100 30/23 Q1004 NOSIG=
Trichy     
VOTR 250600Z 29010KT 5000 HZ FEW016 34/20 Q1008 NOSIG=
Trivandrum 
VOTV 250600Z 28012KT 5000 HZ FEW015 31/25 Q1010 NOSIG=
Udaipur    
VAUD 250600Z 18003KT 4000 HZ FEW030 SCT100 32/23 Q1005 NOSIG=
Varanasi   
VEBN 250600Z 31005KT 3500 -RA SCT020 FEW030CB BKN100 30/25 Q1000 NOSIG=
Vizag      
VOVZ 250530Z 24010KT 6000 FEW018 33/23 Q1002 NOSIG=
Male       
VRMM 250600Z 30009KT 9999 SCT018 FEW019CB BKN260 30/25 Q1011 CB N,NE,W TEMPO 5000 SHRA=
Gan        
VRMG 250600Z 25007KT 9999 FEW018 FEW019CB SCT130 BKN270 31/26 Q1012 CB SE TEMPO 5000 SHRA=
Kathmandu  
VNKT 250620Z 20006KT 7000 FEW010 SCT030 BKN100 25/22 Q1010 NOSIG=
Dhaka      
VGHS 250600Z 09006KT 4000 HZ SCT015 BKN100 31/24 Q1002 NOSIG=
Colombo    
VCBI 250610Z 24009KT 210V280 9999 SCT018 30/24 Q1010 NOSIG=
Karachi    
OPKC 250600Z 25020KT 6000 SCT020 SCT030 33/22 Q1002 TEMPO 24015G25KT=
Lahore     
OPLA 250555Z 09008KT 5000 HZ SCT100 35/20 Q1000 NOSIG RMK QFE973 RMK A29.55=
Gorakhpur  
VEGK 250600Z 09006KT 6000 -RA SCT012 SCT018 FEW030CB BKN090 29/29 Q1000 TEMPO TS=
Agra       
VIAG 250600Z 29007KT 6000 FEW100 33/22 Q1001 NOSIG=
Bagdogra   
VEBD 250600Z 05003KT 6000 FEW020 SCT030 32/26 Q1002 NOSIG=
Gwalior    
VIGR 250600Z 29010KT 6000 FEW100 SCT250 35/22 Q1002 NOSIG=
Pune       
VAPO 250600Z 25009KT 6000 -RA FEW015 SCT020 BKN090 24/22 Q1011 TEMPO 27015G25KT 4000=
Jamnagar   
VAJM 250600Z 27015KT 6000 SCT020 34/23 Q1004 NOSIG=
Pathankot   
VIPK 250600Z 11003KT 6000 FEW030 34/20 Q1003 NOSIG=